Time;durP1;ratioP1;P1;durP2;ratioP2;P2;SDS_P1;SDS_P2;PMS_P1;PMS_P2;Temp;Humidity;BMP_temperature;BMP_pressure;BME280_temperature;BME280_humidity;BME280_pressure;Samples;Min_cycle;Max_cycle;Signal;HPM_P1;HPM_P2
2021/01/19 00:01:07;;;;;;;14.05;6.72;;;4.00;92.00;;;;;;4977637;28;20034;-58
2021/01/19 00:03:32;;;;;;;13.45;6.90;;;4.00;92.00;;;;;;4979064;28;20425;-58
2021/01/19 00:05:58;;;;;;;9.88;6.68;;;4.00;92.00;;;;;;4977870;28;20120;-59
2021/01/19 00:08:24;;;;;;;13.63;6.15;;;4.00;92.00;;;;;;4986214;28;20030;-59
2021/01/19 00:10:49;;;;;;;9.85;6.97;;;4.00;92.00;;;;;;4975833;28;20019;-57
2021/01/19 00:13:20;;;;;;;13.20;7.03;;;3.90;92.00;;;;;;4978576;28;20389;-58
2021/01/19 00:15:47;;;;;;;11.75;7.10;;;4.00;92.10;;;;;;4975923;28;20022;-58
2021/01/19 00:18:12;;;;;;;10.02;6.95;;;3.90;92.00;;;;;;4978047;28;20114;-58
2021/01/19 00:20:38;;;;;;;12.68;7.03;;;3.90;92.00;;;;;;4976098;28;20153;-57
2021/01/19 00:23:03;;;;;;;14.40;6.55;;;3.90;92.10;;;;;;4976689;28;20031;-57
2021/01/19 00:25:29;;;;;;;11.88;6.25;;;3.90;92.00;;;;;;4976962;28;20035;-57
2021/01/19 00:27:54;;;;;;;11.05;7.32;;;3.90;92.00;;;;;;4977108;28;20042;-58
2021/01/19 00:30:20;;;;;;;11.13;6.88;;;3.80;92.00;;;;;;4979950;28;20196;-58
2021/01/19 00:32:46;;;;;;;11.60;7.15;;;3.90;92.10;;;;;;4978666;28;20023;-59
2021/01/19 00:35:11;;;;;;;14.05;7.03;;;3.80;92.00;;;;;;4958388;28;533897;-59
2021/01/19 00:37:37;;;;;;;8.88;6.68;;;3.80;92.00;;;;;;4983008;28;20071;-58
2021/01/19 00:40:03;;;;;;;13.60;7.40;;;3.80;92.00;;;;;;4976208;28;20049;-58
2021/01/19 00:42:28;;;;;;;9.05;6.97;;;3.80;92.00;;;;;;4977935;28;20505;-57
2021/01/19 00:44:54;;;;;;;10.88;7.03;;;3.80;92.00;;;;;;4975978;28;20070;-58
2021/01/19 00:47:19;;;;;;;9.27;6.47;;;3.80;92.00;;;;;;4979567;28;20057;-59
2021/01/19 00:49:45;;;;;;;11.85;6.90;;;3.80;92.00;;;;;;4978233;28;20031;-59
2021/01/19 00:52:10;;;;;;;11.35;6.55;;;3.80;92.00;;;;;;4979470;28;20474;-57
2021/01/19 00:54:36;;;;;;;13.02;7.57;;;3.80;92.00;;;;;;4975488;28;20059;-57
2021/01/19 00:57:02;;;;;;;9.75;6.82;;;3.80;92.10;;;;;;4983371;28;20054;-58
2021/01/19 00:59:27;;;;;;;8.50;6.25;;;3.80;91.90;;;;;;4978216;28;20031;-58
2021/01/19 01:01:53;;;;;;;11.48;7.65;;;3.80;91.90;;;;;;4975575;28;20146;-58
2021/01/19 01:04:18;;;;;;;11.88;7.15;;;3.80;91.90;;;;;;4961524;28;20046;-59
2021/01/19 01:06:44;;;;;;;10.52;5.95;;;3.80;91.90;;;;;;4977519;28;20038;-57
2021/01/19 01:09:09;;;;;;;11.65;6.88;;;3.80;91.90;;;;;;4979287;28;20070;-59
2021/01/19 01:11:44;;;;;;;9.95;6.25;;;3.80;91.90;;;;;;4976524;28;20495;-58
2021/01/19 01:14:11;;;;;;;9.75;6.90;;;3.80;91.90;;;;;;4977967;28;20038;-57
2021/01/19 01:16:36;;;;;;;11.52;7.60;;;3.80;91.90;;;;;;4972932;28;20476;-57
2021/01/19 01:19:06;;;;;;;12.77;7.03;;;3.80;91.90;;;;;;4977106;28;20034;-58
2021/01/19 01:21:35;;;;;;;11.20;6.75;;;3.80;91.90;;;;;;4973818;28;20011;-59
2021/01/19 01:24:00;;;;;;;10.02;6.95;;;3.80;92.00;;;;;;4981738;28;20039;-58
2021/01/19 01:26:26;;;;;;;11.25;7.13;;;3.80;92.00;;;;;;4979398;28;20022;-58
2021/01/19 01:28:51;;;;;;;11.18;7.30;;;3.80;92.00;;;;;;4975695;28;20027;-57
2021/01/19 01:31:20;;;;;;;8.68;6.78;;;3.80;92.00;;;;;;4978671;28;20498;-59
2021/01/19 01:33:49;;;;;;;12.00;6.93;;;3.80;92.00;;;;;;4973599;28;20051;-58
2021/01/19 01:36:15;;;;;;;8.95;6.78;;;3.70;92.00;;;;;;4981444;28;20050;-58
2021/01/19 01:38:40;;;;;;;13.15;7.25;;;3.70;92.00;;;;;;4982343;28;20316;-57
2021/01/19 01:41:19;;;;;;;11.55;7.05;;;3.70;92.10;;;;;;4981620;28;20034;-58
2021/01/19 01:43:45;;;;;;;10.68;7.00;;;3.70;92.10;;;;;;4974509;28;20031;-59
2021/01/19 01:46:11;;;;;;;14.20;7.43;;;3.70;92.10;;;;;;4980525;28;20109;-58
2021/01/19 01:48:38;;;;;;;10.20;7.32;;;3.70;92.20;;;;;;4976368;28;20038;-59
2021/01/19 01:51:04;;;;;;;11.68;7.32;;;3.70;92.20;;;;;;4981914;28;20039;-58
2021/01/19 01:53:30;;;;;;;11.60;7.43;;;3.70;92.20;;;;;;4972872;28;20143;-58
2021/01/19 01:55:55;;;;;;;10.73;7.32;;;3.70;92.20;;;;;;4981254;28;20377;-58
2021/01/19 01:58:21;;;;;;;13.38;7.85;;;3.70;92.20;;;;;;4977129;28;20033;-58
2021/01/19 02:00:49;;;;;;;9.35;7.18;;;3.70;92.20;;;;;;4980256;28;20041;-58
2021/01/19 02:03:15;;;;;;;10.98;6.50;;;3.70;92.10;;;;;;4983275;28;20470;-58
2021/01/19 02:05:40;;;;;;;10.63;7.32;;;3.70;92.20;;;;;;4992226;28;20101;-59
2021/01/19 02:08:54;;;;;;;9.60;7.00;;;3.70;92.20;;;;;;4992958;28;20031;-58
2021/01/19 02:11:27;;;;;;;13.57;7.75;;;3.70;92.20;;;;;;4956645;28;20611;-57
2021/01/19 02:14:17;;;;;;;10.43;6.88;;;3.70;92.20;;;;;;4981724;28;20537;-59
2021/01/19 02:16:56;;;;;;;9.57;7.10;;;3.70;92.20;;;;;;4986445;28;20019;-59
2021/01/19 02:19:56;;;;;;;8.75;7.10;;;3.70;92.20;;;;;;4979346;28;20536;-58
2021/01/19 02:22:38;;;;;;;8.90;6.57;;;3.70;92.20;;;;;;4975323;28;20081;-59
2021/01/19 02:25:12;;;;;;;10.02;6.63;;;3.70;92.20;;;;;;4972243;28;20040;-58
2021/01/19 02:27:52;;;;;;;8.10;6.47;;;3.70;92.20;;;;;;4988911;28;20057;-58
2021/01/19 02:30:47;;;;;;;10.98;6.70;;;3.70;92.20;;;;;;4972449;28;20125;-59
2021/01/19 02:33:21;;;;;;;8.90;6.97;;;3.70;92.20;;;;;;4970852;28;20030;-58
2021/01/19 02:35:53;;;;;;;9.60;6.32;;;3.70;92.20;;;;;;4984005;28;20046;-58
2021/01/19 02:38:30;;;;;;;12.52;6.82;;;3.70;92.20;;;;;;4989190;28;20054;-59
2021/01/19 02:40:55;;;;;;;9.48;7.25;;;3.70;92.20;;;;;;4982609;28;20490;-58
2021/01/19 02:43:25;;;;;;;10.63;6.68;;;3.70;92.20;;;;;;4989207;28;20033;-57
2021/01/19 02:45:54;;;;;;;8.68;6.53;;;3.70;92.20;;;;;;4986143;28;20031;-58
2021/01/19 02:48:23;;;;;;;9.73;7.00;;;3.70;92.50;;;;;;4988892;28;20069;-57
2021/01/19 02:50:49;;;;;;;8.75;6.40;;;3.70;92.10;;;;;;4987698;28;20034;-57
2021/01/19 02:53:15;;;;;;;8.80;6.80;;;3.70;92.10;;;;;;4952276;28;20385;-59
2021/01/19 02:55:41;;;;;;;9.40;6.20;;;3.70;92.10;;;;;;4957053;28;20030;-59
2021/01/19 02:58:25;;;;;;;9.35;6.93;;;3.70;92.10;;;;;;4974829;28;20105;-58
2021/01/19 03:01:22;;;;;;;9.30;6.65;;;3.70;92.10;;;;;;4972960;28;20085;-58
2021/01/19 03:03:48;;;;;;;11.80;6.65;;;3.70;92.10;;;;;;4956864;28;20081;-59
2021/01/19 03:06:15;;;;;;;9.65;7.25;;;3.70;92.10;;;;;;4954493;28;20423;-58
2021/01/19 03:08:41;;;;;;;8.70;6.45;;;3.70;92.10;;;;;;4977305;28;20065;-59
2021/01/19 03:11:07;;;;;;;8.48;6.72;;;3.70;92.20;;;;;;4982214;28;20682;-58
2021/01/19 03:13:33;;;;;;;7.53;5.85;;;3.70;92.10;;;;;;4960003;28;20027;-57
2021/01/19 03:16:09;;;;;;;6.95;5.88;;;3.70;92.10;;;;;;4957212;28;20059;-59
2021/01/19 03:18:35;;;;;;;8.68;6.30;;;3.70;92.10;;;;;;4977721;28;20018;-59
2021/01/19 03:21:05;;;;;;;10.95;6.43;;;3.70;92.10;;;;;;4973771;28;20039;-59
2021/01/19 03:23:31;;;;;;;8.98;5.95;;;3.70;92.10;;;;;;4978806;28;20530;-58
2021/01/19 03:25:56;;;;;;;9.38;6.22;;;3.60;92.10;;;;;;4973884;28;20162;-58
2021/01/19 03:28:22;;;;;;;10.32;6.50;;;3.60;92.10;;;;;;4979523;28;20030;-58
2021/01/19 03:30:47;;;;;;;8.07;6.57;;;3.60;92.10;;;;;;4974313;28;20471;-57
2021/01/19 03:33:13;;;;;;;7.90;6.15;;;3.60;92.10;;;;;;4974322;28;20045;-58
2021/01/19 03:35:39;;;;;;;8.63;5.97;;;3.60;92.10;;;;;;4967369;28;20062;-58
2021/01/19 03:38:05;;;;;;;8.73;6.18;;;3.60;92.10;;;;;;4983126;28;20019;-58
2021/01/19 03:40:31;;;;;;;8.35;6.25;;;3.60;92.10;;;;;;4984272;28;20149;-59
2021/01/19 03:42:56;;;;;;;8.25;6.03;;;3.60;92.10;;;;;;4969052;28;20110;-57
2021/01/19 03:45:22;;;;;;;9.43;6.15;;;3.60;92.10;;;;;;4989554;28;20031;-58
2021/01/19 03:47:47;;;;;;;8.05;6.28;;;3.60;92.00;;;;;;4982134;28;20486;-59
2021/01/19 03:50:13;;;;;;;6.95;5.50;;;3.60;92.00;;;;;;4989686;28;20466;-65
2021/01/19 03:52:38;;;;;;;7.82;5.82;;;3.60;92.00;;;;;;4983155;28;20038;-58
2021/01/19 03:55:04;;;;;;;8.63;6.03;;;3.60;92.00;;;;;;4976490;28;20107;-57
2021/01/19 03:57:30;;;;;;;8.85;6.00;;;3.60;92.00;;;;;;4959784;28;20027;-58
2021/01/19 03:59:55;;;;;;;7.20;5.47;;;3.60;92.00;;;;;;4987302;28;20141;-59
2021/01/19 04:02:21;;;;;;;6.90;5.38;;;3.60;92.00;;;;;;4990654;28;20068;-59
2021/01/19 04:04:48;;;;;;;7.50;5.97;;;3.60;92.00;;;;;;4989092;28;20138;-58
2021/01/19 04:07:13;;;;;;;7.35;5.97;;;3.60;92.00;;;;;;4989426;28;20030;-58
2021/01/19 04:09:39;;;;;;;7.43;5.65;;;3.60;92.00;;;;;;4988784;28;20474;-58
2021/01/19 04:12:05;;;;;;;7.88;5.78;;;3.50;91.90;;;;;;4983182;28;20403;-58
2021/01/19 04:15:14;;;;;;;8.00;5.53;;;3.60;92.00;;;;;;4989537;28;20037;-58
2021/01/19 04:17:39;;;;;;;6.43;4.68;;;3.50;92.00;;;;;;4987758;28;20027;-58
2021/01/19 04:20:06;;;;;;;8.13;5.35;;;3.50;92.00;;;;;;4985866;28;20032;-59
2021/01/19 04:22:32;;;;;;;7.75;5.72;;;3.50;92.00;;;;;;4984415;28;20058;-57
2021/01/19 04:24:57;;;;;;;6.88;5.45;;;3.50;92.00;;;;;;4982745;28;20320;-57
2021/01/19 04:27:23;;;;;;;7.35;5.40;;;3.50;92.00;;;;;;4981351;28;20190;-57
2021/01/19 04:29:48;;;;;;;7.03;5.63;;;3.50;92.00;;;;;;4969779;28;20030;-58
2021/01/19 04:32:14;;;;;;;6.75;5.43;;;3.50;92.00;;;;;;4987651;28;20018;-57
2021/01/19 04:34:40;;;;;;;8.63;5.10;;;3.50;92.00;;;;;;4975278;28;20059;-58
2021/01/19 04:37:05;;;;;;;7.75;5.78;;;3.50;92.00;;;;;;4978247;28;20023;-57
2021/01/19 04:39:31;;;;;;;5.75;4.82;;;3.50;92.00;;;;;;4985312;28;20062;-58
2021/01/19 04:41:56;;;;;;;7.15;5.30;;;3.50;92.00;;;;;;4987460;28;20030;-57
2021/01/19 04:44:24;;;;;;;7.72;5.32;;;3.50;92.00;;;;;;4969901;28;20380;-58
2021/01/19 04:46:49;;;;;;;7.25;5.13;;;3.50;91.90;;;;;;4964653;28;20069;-57
2021/01/19 04:49:15;;;;;;;10.57;5.75;;;3.50;91.90;;;;;;4986859;28;20536;-58
2021/01/19 04:51:41;;;;;;;7.28;5.03;;;3.50;91.90;;;;;;4978017;28;20038;-57
2021/01/19 04:54:07;;;;;;;6.72;5.45;;;3.50;91.90;;;;;;4988785;28;20084;-57
2021/01/19 04:56:37;;;;;;;8.52;5.40;;;3.40;91.90;;;;;;4978597;28;20023;-58
2021/01/19 04:59:02;;;;;;;7.28;5.38;;;3.40;91.90;;;;;;4974426;28;20034;-57
2021/01/19 05:01:34;;;;;;;7.85;5.38;;;3.40;91.90;;;;;;4965865;28;20023;-58
2021/01/19 05:04:16;;;;;;;9.32;6.05;;;3.40;91.90;;;;;;4988543;28;20399;-58
2021/01/19 05:06:41;;;;;;;6.47;5.20;;;3.50;91.90;;;;;;4971695;28;20109;-58
2021/01/19 05:09:08;;;;;;;6.70;5.13;;;3.40;91.80;;;;;;4981156;28;20157;-58
2021/01/19 05:11:48;;;;;;;7.70;5.38;;;3.40;91.90;;;;;;4988039;28;20076;-58
2021/01/19 05:14:17;;;;;;;9.20;5.43;;;3.40;91.90;;;;;;4982731;28;20097;-58
2021/01/19 05:16:42;;;;;;;8.27;5.10;;;3.40;91.90;;;;;;4981435;28;20039;-58
2021/01/19 05:19:08;;;;;;;7.13;5.20;;;3.40;91.90;;;;;;4968446;28;20084;-58
2021/01/19 05:21:37;;;;;;;6.78;5.20;;;3.40;91.90;;;;;;4989609;28;20176;-58
2021/01/19 05:24:03;;;;;;;6.18;5.13;;;3.40;91.90;;;;;;4973167;28;20049;-57
2021/01/19 05:26:28;;;;;;;6.00;5.05;;;3.40;91.80;;;;;;4989823;28;20482;-57
2021/01/19 05:28:54;;;;;;;6.68;4.95;;;3.30;91.80;;;;;;4992437;28;20034;-58
2021/01/19 05:31:27;;;;;;;5.13;4.63;;;3.40;91.90;;;;;;4988115;28;20046;-57
2021/01/19 05:33:52;;;;;;;9.45;5.10;;;3.40;91.90;;;;;;4991405;28;20503;-57
2021/01/19 05:36:18;;;;;;;5.80;4.90;;;3.40;91.80;;;;;;4985244;28;20022;-57
2021/01/19 05:38:48;;;;;;;7.15;5.13;;;3.40;91.80;;;;;;4991305;28;20270;-58
2021/01/19 05:41:38;;;;;;;6.53;4.60;;;3.40;91.80;;;;;;4989623;28;20026;-57
2021/01/19 05:44:31;;;;;;;7.20;4.57;;;3.30;91.80;;;;;;4986331;28;20088;-61
2021/01/19 05:46:59;;;;;;;5.32;4.65;;;3.30;91.80;;;;;;4991021;28;20029;-58
2021/01/19 05:49:26;;;;;;;8.10;4.60;;;3.30;91.80;;;;;;4991862;28;20054;-57
2021/01/19 05:51:58;;;;;;;6.55;4.90;;;3.30;91.80;;;;;;4991641;28;20028;-58
2021/01/19 05:54:25;;;;;;;6.22;4.88;;;3.30;91.80;;;;;;4986008;28;20046;-57
2021/01/19 05:56:57;;;;;;;7.65;4.70;;;3.30;91.80;;;;;;4984947;28;20065;-57
2021/01/19 05:59:29;;;;;;;4.78;4.15;;;3.30;91.80;;;;;;4978446;28;20405;-58
2021/01/19 06:01:59;;;;;;;6.95;5.05;;;3.30;91.80;;;;;;4974124;28;20046;-58
2021/01/19 06:04:53;;;;;;;7.22;4.72;;;3.30;91.80;;;;;;4983523;28;20105;-60
2021/01/19 06:07:22;;;;;;;6.57;4.57;;;3.20;91.80;;;;;;4969584;28;20092;-58
2021/01/19 06:09:48;;;;;;;9.35;5.05;;;3.20;91.80;;;;;;4986457;28;20046;-58
2021/01/19 06:12:15;;;;;;;7.32;4.78;;;3.30;91.80;;;;;;4990497;28;20053;-57
2021/01/19 06:14:46;;;;;;;6.03;4.30;;;3.30;91.80;;;;;;4981024;28;20394;-58
2021/01/19 06:17:16;;;;;;;5.80;4.82;;;3.30;91.80;;;;;;4992798;28;20030;-58
2021/01/19 06:19:42;;;;;;;5.28;4.50;;;3.20;91.80;;;;;;4971373;28;20696;-57
2021/01/19 06:22:12;;;;;;;5.80;4.20;;;3.20;91.70;;;;;;4991049;28;20037;-58
2021/01/19 06:24:48;;;;;;;5.72;4.57;;;3.20;91.70;;;;;;4990225;28;20113;-58
2021/01/19 06:27:23;;;;;;;5.18;4.22;;;3.20;91.70;;;;;;4987409;28;20537;-58
2021/01/19 06:30:00;;;;;;;4.45;4.03;;;3.30;91.80;;;;;;4987151;28;20061;-58
2021/01/19 06:32:33;;;;;;;6.68;4.45;;;3.30;91.80;;;;;;4989158;28;20390;-58
2021/01/19 06:35:15;;;;;;;5.35;4.30;;;3.20;91.80;;;;;;4983184;28;20299;-57
2021/01/19 06:37:41;;;;;;;5.63;4.50;;;3.20;91.80;;;;;;4966684;28;20019;-58
2021/01/19 06:40:08;;;;;;;6.82;4.20;;;3.20;91.80;;;;;;4983764;28;20033;-58
2021/01/19 06:42:34;;;;;;;6.15;4.50;;;3.20;91.70;;;;;;4989671;28;20487;-57
2021/01/19 06:45:01;;;;;;;5.35;4.40;;;3.20;91.70;;;;;;4990342;28;20045;-58
2021/01/19 06:47:27;;;;;;;6.35;4.90;;;3.20;91.70;;;;;;4990568;28;20022;-58
2021/01/19 06:49:53;;;;;;;4.53;3.95;;;3.20;91.70;;;;;;4989934;28;20073;-57
2021/01/19 06:52:19;;;;;;;5.60;4.13;;;3.20;91.70;;;;;;4990262;28;20077;-57
2021/01/19 06:54:54;;;;;;;5.82;4.03;;;3.20;91.60;;;;;;4991681;28;20041;-57
2021/01/19 06:57:31;;;;;;;5.03;4.37;;;3.20;91.70;;;;;;4986103;28;20360;-57
2021/01/19 07:00:10;;;;;;;5.85;4.55;;;3.10;91.70;;;;;;4989119;28;20414;-58
2021/01/19 07:02:38;;;;;;;5.32;4.00;;;3.20;91.70;;;;;;4973586;28;20405;-58
2021/01/19 07:05:10;;;;;;;6.10;4.35;;;3.20;91.60;;;;;;4988745;28;20022;-58
2021/01/19 07:07:42;;;;;;;5.22;4.25;;;3.10;91.60;;;;;;4988599;28;20050;-57
2021/01/19 07:10:09;;;;;;;5.32;4.05;;;3.10;91.60;;;;;;4990489;28;20105;-58
2021/01/19 07:12:57;;;;;;;7.50;4.15;;;3.10;91.60;;;;;;4989231;28;20026;-57
2021/01/19 07:15:44;;;;;;;4.90;4.10;;;3.10;91.60;;;;;;4986551;28;20437;-58
2021/01/19 07:18:34;;;;;;;4.90;3.80;;;3.10;91.60;;;;;;4986627;28;20027;-58
2021/01/19 07:21:18;;;;;;;4.75;4.35;;;3.10;91.60;;;;;;4981429;28;20106;-58
2021/01/19 07:23:49;;;;;;;9.75;4.78;;;3.10;91.60;;;;;;4990221;28;20053;-58
2021/01/19 07:26:37;;;;;;;6.25;4.55;;;3.10;91.60;;;;;;4988688;28;20030;-59
2021/01/19 07:29:02;;;;;;;5.85;4.40;;;3.10;91.60;;;;;;4977625;28;20065;-57
2021/01/19 07:31:28;;;;;;;5.63;3.97;;;3.10;91.60;;;;;;4990764;28;20066;-57
2021/01/19 07:33:55;;;;;;;5.32;4.25;;;3.10;91.60;;;;;;4971719;28;20043;-58
2021/01/19 07:36:22;;;;;;;5.05;3.92;;;3.10;91.60;;;;;;4986440;28;20038;-58
2021/01/19 07:38:47;;;;;;;7.45;4.00;;;3.10;91.60;;;;;;4971238;28;20101;-58
2021/01/19 07:41:13;;;;;;;5.43;4.20;;;3.10;91.60;;;;;;4971046;28;20034;-58
2021/01/19 07:43:39;;;;;;;4.97;4.38;;;3.10;91.60;;;;;;4989093;28;20113;-58
2021/01/19 07:46:04;;;;;;;4.90;4.40;;;3.10;91.60;;;;;;4990848;28;20076;-58
2021/01/19 07:48:35;;;;;;;5.78;4.35;;;3.00;91.60;;;;;;4990487;28;20037;-57
2021/01/19 07:51:12;;;;;;;4.97;4.15;;;3.00;91.60;;;;;;4989411;28;20429;-57
2021/01/19 07:53:52;;;;;;;4.57;4.05;;;3.00;91.60;;;;;;4982665;28;20058;-58
2021/01/19 07:56:27;;;;;;;4.90;4.22;;;3.10;91.60;;;;;;4988367;28;20030;-58
2021/01/19 07:58:53;;;;;;;5.32;4.15;;;3.00;91.60;;;;;;4981562;28;20022;-58
2021/01/19 08:01:34;;;;;;;5.25;4.10;;;3.10;91.60;;;;;;4984086;28;20389;-58
2021/01/19 08:04:10;;;;;;;5.55;4.50;;;3.00;91.60;;;;;;4985000;28;20113;-58
2021/01/19 08:06:36;;;;;;;5.53;4.25;;;3.10;91.60;;;;;;4985699;28;20485;-57
2021/01/19 08:09:15;;;;;;;5.70;4.22;;;3.10;91.60;;;;;;4990007;28;20034;-58
2021/01/19 08:11:42;;;;;;;6.63;4.22;;;3.10;91.50;;;;;;4982157;28;20030;-58
2021/01/19 08:14:08;;;;;;;8.57;4.53;;;3.10;91.50;;;;;;4989618;28;20040;-58
2021/01/19 08:16:36;;;;;;;6.00;4.55;;;3.10;91.50;;;;;;4989699;28;20493;-57
2021/01/19 08:19:14;;;;;;;5.40;4.45;;;3.00;91.40;;;;;;4981249;28;20375;-60
2021/01/19 08:21:52;;;;;;;6.10;4.43;;;3.10;91.40;;;;;;4987432;28;20475;-58
2021/01/19 08:24:24;;;;;;;5.43;4.78;;;3.00;91.40;;;;;;4989333;28;20049;-57
2021/01/19 08:26:50;;;;;;;5.65;4.13;;;3.00;91.40;;;;;;4990268;28;20033;-58
2021/01/19 08:29:19;;;;;;;5.72;4.88;;;3.00;91.40;;;;;;4985779;28;20030;-57
2021/01/19 08:31:59;;;;;;;5.57;4.28;;;3.00;91.40;;;;;;4979461;28;20027;-59
2021/01/19 08:34:26;;;;;;;8.23;4.22;;;3.00;91.50;;;;;;4975846;28;20495;-57
2021/01/19 08:36:51;;;;;;;6.22;4.95;;;3.00;91.40;;;;;;4954366;28;20046;-57
2021/01/19 08:39:17;;;;;;;6.03;4.03;;;3.00;91.40;;;;;;4974250;28;20062;-58
2021/01/19 08:41:50;;;;;;;5.00;4.13;;;3.00;91.30;;;;;;4961207;28;20141;-58
2021/01/19 08:44:16;;;;;;;5.75;4.47;;;3.00;91.30;;;;;;4978688;28;20070;-57
2021/01/19 08:46:42;;;;;;;4.78;4.05;;;3.00;91.30;;;;;;4985986;28;20434;-58
2021/01/19 08:49:08;;;;;;;6.60;4.70;;;3.00;91.20;;;;;;4973087;28;20054;-58
2021/01/19 08:51:34;;;;;;;5.13;4.32;;;3.00;91.10;;;;;;4968254;28;20031;-57
2021/01/19 08:54:00;;;;;;;5.75;4.32;;;3.00;91.10;;;;;;4966226;28;20528;-59
2021/01/19 08:56:26;;;;;;;6.53;4.00;;;3.10;91.10;;;;;;4973252;28;20423;-57
2021/01/19 08:58:52;;;;;;;6.35;4.00;;;3.00;91.00;;;;;;4985200;28;20061;-58
2021/01/19 09:01:17;;;;;;;4.60;4.07;;;3.00;90.90;;;;;;4984199;28;20026;-58
2021/01/19 09:03:53;;;;;;;5.85;4.45;;;3.00;90.80;;;;;;4981810;28;20018;-57
2021/01/19 09:06:20;;;;;;;4.32;3.90;;;3.10;90.80;;;;;;4990754;28;20505;-58
2021/01/19 09:08:45;;;;;;;5.10;4.13;;;3.10;90.80;;;;;;4981797;28;20038;-58
2021/01/19 09:11:12;;;;;;;5.53;4.25;;;3.10;90.90;;;;;;4987677;28;20057;-57
2021/01/19 09:13:39;;;;;;;5.15;3.85;;;3.10;90.80;;;;;;4978247;28;20018;-58
2021/01/19 09:16:05;;;;;;;5.57;4.45;;;3.10;90.70;;;;;;4983856;28;20026;-57
2021/01/19 09:18:30;;;;;;;6.18;4.10;;;3.10;90.70;;;;;;4986208;28;20039;-58
2021/01/19 09:21:10;;;;;;;6.55;4.13;;;3.10;90.70;;;;;;4987168;28;20552;-57
2021/01/19 09:23:36;;;;;;;5.10;3.83;;;3.10;90.70;;;;;;4987619;28;20265;-57
2021/01/19 09:26:08;;;;;;;6.22;4.18;;;3.10;90.70;;;;;;4970802;28;20211;-58
2021/01/19 09:28:37;;;;;;;5.72;3.95;;;3.10;90.60;;;;;;4967818;28;20046;-58
2021/01/19 09:31:15;;;;;;;5.25;3.88;;;3.10;90.60;;;;;;4968652;28;20034;-58
2021/01/19 09:33:41;;;;;;;4.05;3.60;;;3.10;90.60;;;;;;4989844;28;20129;-57
2021/01/19 09:36:08;;;;;;;5.03;3.85;;;3.20;90.50;;;;;;4984450;28;20066;-58
2021/01/19 09:38:34;;;;;;;5.13;3.85;;;3.10;90.50;;;;;;4959040;28;20077;-58
2021/01/19 09:41:00;;;;;;;6.88;4.43;;;3.10;90.40;;;;;;4984076;28;20604;-58
2021/01/19 09:43:25;;;;;;;5.22;4.03;;;3.20;90.40;;;;;;4977595;28;20065;-57
2021/01/19 09:45:51;;;;;;;5.65;3.80;;;3.20;90.30;;;;;;4981356;28;20106;-57
2021/01/19 09:48:17;;;;;;;4.90;3.58;;;3.20;90.30;;;;;;4976944;28;20033;-58
2021/01/19 09:50:42;;;;;;;7.10;4.30;;;3.20;90.30;;;;;;4986512;28;20026;-57
2021/01/19 09:53:08;;;;;;;4.25;3.55;;;3.20;90.30;;;;;;4985158;28;20041;-57
2021/01/19 09:55:34;;;;;;;5.15;3.60;;;3.20;90.30;;;;;;4977815;28;20051;-58
2021/01/19 09:58:03;;;;;;;7.78;3.80;;;3.20;90.10;;;;;;4986420;28;20029;-57
2021/01/19 10:00:30;;;;;;;4.90;3.80;;;3.20;90.10;;;;;;4978604;28;20194;-57
2021/01/19 10:02:55;;;;;;;4.40;3.38;;;3.30;90.10;;;;;;4965901;28;20386;-58
2021/01/19 10:05:22;;;;;;;4.43;3.90;;;3.30;90.10;;;;;;4970256;28;20041;-58
2021/01/19 10:07:48;;;;;;;5.55;3.97;;;3.30;90.00;;;;;;4969494;28;20290;-57
2021/01/19 10:10:14;;;;;;;5.10;3.70;;;3.40;90.10;;;;;;4978619;28;20467;-58
2021/01/19 10:12:40;;;;;;;4.63;3.13;;;3.30;90.00;;;;;;4982733;28;20037;-58
2021/01/19 10:15:10;;;;;;;4.78;3.83;;;3.30;90.00;;;;;;4980071;28;20038;-58
2021/01/19 10:17:35;;;;;;;4.25;3.45;;;3.30;90.00;;;;;;4983127;28;20390;-57
2021/01/19 10:20:14;;;;;;;6.50;4.03;;;3.30;90.30;;;;;;4978927;28;20019;-57
2021/01/19 10:22:42;;;;;;;4.47;3.42;;;3.30;90.00;;;;;;4982446;28;20046;-62
2021/01/19 10:25:08;;;;;;;4.07;3.22;;;3.40;90.00;;;;;;4973432;28;20081;-57
2021/01/19 10:27:39;;;;;;;3.97;3.20;;;3.40;89.80;;;;;;4981196;28;20031;-58
2021/01/19 10:30:05;;;;;;;3.88;3.13;;;3.40;89.70;;;;;;4967054;28;20471;-57
2021/01/19 10:32:47;;;;;;;5.95;3.60;;;3.40;90.00;;;;;;4976852;28;20030;-58
2021/01/19 10:35:14;;;;;;;4.30;3.40;;;3.40;89.40;;;;;;4982970;28;20046;-58
2021/01/19 10:37:51;;;;;;;5.07;3.50;;;3.50;89.40;;;;;;4981108;28;20486;-57
2021/01/19 10:40:16;;;;;;;4.13;3.25;;;3.50;88.90;;;;;;4975419;28;20066;-57
2021/01/19 10:42:42;;;;;;;4.82;3.08;;;3.50;88.90;;;;;;4973229;28;20027;-57
2021/01/19 10:45:08;;;;;;;4.15;3.35;;;3.60;88.80;;;;;;4983724;28;20053;-58
2021/01/19 10:47:43;;;;;;;5.85;3.30;;;3.50;88.60;;;;;;4979323;28;20039;-58
2021/01/19 10:50:16;;;;;;;4.50;3.42;;;3.50;88.70;;;;;;4978291;28;20034;-58
2021/01/19 10:52:42;;;;;;;3.38;2.80;;;3.60;88.70;;;;;;4988304;28;20029;-57
2021/01/19 10:55:10;;;;;;;4.15;2.90;;;3.60;88.60;;;;;;4986852;28;20030;-58
2021/01/19 10:57:36;;;;;;;4.25;3.08;;;3.60;88.60;;;;;;4983493;28;20505;-57
2021/01/19 11:00:04;;;;;;;3.92;3.10;;;3.60;88.40;;;;;;4986675;28;20101;-57
2021/01/19 11:02:33;;;;;;;4.20;3.25;;;3.60;88.20;;;;;;4985199;28;20050;-58
2021/01/19 11:04:59;;;;;;;3.53;2.80;;;3.70;87.90;;;;;;4987731;28;20713;-57
2021/01/19 11:07:24;;;;;;;3.35;2.83;;;3.70;87.80;;;;;;4984498;28;20034;-58
2021/01/19 11:09:50;;;;;;;4.70;2.92;;;3.70;87.90;;;;;;4985571;28;20054;-57
2021/01/19 11:12:18;;;;;;;3.30;2.78;;;3.70;87.70;;;;;;4985954;28;20077;-58
2021/01/19 11:14:44;;;;;;;4.05;2.63;;;3.70;87.90;;;;;;4986941;28;20034;-57
2021/01/19 11:17:09;;;;;;;3.83;2.97;;;3.70;87.70;;;;;;4982399;28;20018;-57
2021/01/19 11:19:35;;;;;;;3.33;2.47;;;3.80;87.70;;;;;;4982564;28;20023;-58
2021/01/19 11:22:00;;;;;;;3.80;2.92;;;3.80;87.70;;;;;;4983784;28;20113;-58
2021/01/19 11:24:26;;;;;;;3.45;2.47;;;3.80;87.50;;;;;;4989160;28;20046;-57
2021/01/19 11:26:51;;;;;;;3.28;2.60;;;3.80;87.60;;;;;;4985319;28;20382;-57
2021/01/19 11:29:17;;;;;;;2.58;2.33;;;3.80;87.40;;;;;;4986037;28;20427;-57
2021/01/19 11:31:42;;;;;;;3.65;2.47;;;3.80;87.40;;;;;;4989405;28;20081;-57
2021/01/19 11:34:09;;;;;;;4.07;3.28;;;3.90;87.50;;;;;;4989635;28;20050;-58
2021/01/19 11:36:38;;;;;;;3.40;2.63;;;3.90;87.50;;;;;;4978680;28;20117;-57
2021/01/19 11:39:05;;;;;;;3.47;2.67;;;3.90;87.50;;;;;;4976210;28;20482;-58
2021/01/19 11:41:31;;;;;;;4.90;2.80;;;3.90;87.40;;;;;;4982418;28;20026;-57
2021/01/19 11:43:56;;;;;;;4.47;2.65;;;3.90;87.40;;;;;;4978001;28;20031;-57
2021/01/19 11:46:26;;;;;;;4.10;2.95;;;4.00;87.50;;;;;;4959455;28;20447;-57
2021/01/19 11:48:52;;;;;;;3.78;2.60;;;4.00;87.30;;;;;;4974719;28;20039;-57
2021/01/19 11:51:19;;;;;;;2.65;2.10;;;4.00;87.10;;;;;;4983942;28;20034;-58
2021/01/19 11:53:48;;;;;;;4.00;2.83;;;4.00;87.20;;;;;;4959994;28;20490;-58
2021/01/19 11:56:13;;;;;;;5.20;2.75;;;4.00;87.30;;;;;;4982622;28;20474;-58
2021/01/19 11:58:40;;;;;;;3.53;2.60;;;4.10;87.30;;;;;;4977217;28;20030;-57
2021/01/19 12:01:05;;;;;;;2.63;2.30;;;4.10;87.40;;;;;;4960908;28;20502;-58
2021/01/19 12:03:31;;;;;;;3.47;2.70;;;4.10;87.40;;;;;;4975682;28;20041;-58
2021/01/19 12:05:56;;;;;;;4.18;3.05;;;4.10;87.30;;;;;;4981009;28;20490;-57
2021/01/19 12:08:22;;;;;;;4.78;2.67;;;4.10;87.20;;;;;;4975743;28;20026;-58
2021/01/19 12:10:47;;;;;;;3.97;2.72;;;4.10;87.30;;;;;;4981042;28;20042;-58
2021/01/19 12:13:13;;;;;;;2.72;2.53;;;4.10;87.30;;;;;;4975574;28;20651;-58
2021/01/19 12:15:42;;;;;;;3.22;2.80;;;4.10;87.30;;;;;;4969088;28;20628;-60
2021/01/19 12:18:08;;;;;;;3.45;2.20;;;4.10;87.20;;;;;;4975292;28;20027;-58
2021/01/19 12:20:34;;;;;;;2.72;2.40;;;4.20;87.10;;;;;;4980484;28;20575;-58
2021/01/19 12:22:59;;;;;;;3.10;2.20;;;4.20;87.20;;;;;;4983215;28;20109;-58
2021/01/19 12:25:25;;;;;;;3.28;2.33;;;4.20;87.20;;;;;;4989185;28;20104;-57
2021/01/19 12:27:50;;;;;;;3.17;2.58;;;4.20;87.20;;;;;;4986405;28;20038;-57
2021/01/19 12:30:16;;;;;;;2.47;2.22;;;4.20;87.10;;;;;;4987395;28;20498;-58
2021/01/19 12:32:42;;;;;;;2.35;2.15;;;4.20;87.00;;;;;;4989197;28;20027;-58
2021/01/19 12:35:08;;;;;;;2.88;2.50;;;4.20;87.00;;;;;;4970392;28;20053;-58
2021/01/19 12:37:34;;;;;;;4.65;2.28;;;4.20;87.10;;;;;;4951842;28;20406;-57
2021/01/19 12:40:00;;;;;;;2.83;2.40;;;4.30;87.20;;;;;;4985532;28;20023;-58
2021/01/19 12:42:25;;;;;;;4.68;2.58;;;4.20;87.00;;;;;;4985035;28;20039;-57
2021/01/19 12:44:51;;;;;;;2.47;1.92;;;4.30;87.00;;;;;;4988566;28;20042;-58
2021/01/19 12:47:16;;;;;;;3.60;2.63;;;4.30;87.00;;;;;;4977211;28;20034;-58
2021/01/19 12:49:42;;;;;;;2.50;2.30;;;4.30;86.90;;;;;;4967492;28;20058;-58
2021/01/19 12:52:08;;;;;;;3.20;2.30;;;4.30;86.90;;;;;;4967477;28;20490;-57
2021/01/19 12:54:34;;;;;;;2.95;2.10;;;4.40;86.90;;;;;;4983836;28;20347;-57
2021/01/19 12:57:00;;;;;;;2.22;2.03;;;4.40;86.90;;;;;;4984657;28;20426;-58
2021/01/19 12:59:25;;;;;;;3.13;2.50;;;4.40;86.80;;;;;;4986608;28;20081;-58
2021/01/19 13:01:51;;;;;;;4.80;1.83;;;4.40;87.50;;;;;;4986622;28;20026;-58
2021/01/19 13:04:17;;;;;;;3.13;2.70;;;4.40;86.80;;;;;;4986599;28;20033;-58